Thunder radar more information blitzortung!


Rain radar more information rain snow radar


altri nostri siti meteo:

PomeziameteoStazione ufficiale di Pomezia

MeteopomeziaSito sulle condizioni meteo



Nessuna attenzione particolare richiesta.    Non ci sono allerte meteo

Report METAR

   
LIMP - Parma
Dati ricevuti: 31-03-2020 19:50
DATI Obsoleti
Sereno  
Sereno  
   Vento: Oriente 13 km/h
Vento: Oriente 13 km/h
Temperatura: 8°C
Temperatura Vento: 6°C
P.to Rugiada: 3°C
Umidita: 71%
Barometro: 1021 hPa
Visibilita: oltre 10 km
dettagli cloud: Sereno
LIMP 311750Z 10007KT CAVOK 08/03 Q1021
LIPE - Bologna
Dati ricevuti: 01-04-2020 02:20
Sereno  
Sereno  
   Vento: Variabile 1.9 km/h
Vento: Variabile 1.9 km/h
Temperatura: 1°C
P.to Rugiada: -3°C
Umidita: 75%
Barometro: 1023 hPa
Nuvole: Sereno
Visibilita: oltre 10 km
dettagli cloud: Sereno
LIPE 010020Z AUTO VRB01KT 9999 NCD 01/M03 Q1023
LIPO - Brescia/Montichi
Dati ricevuti: 01-04-2020 01:50
Sereno  
Sereno  
   Vento: Nord 9.3 km/h
Vento: Nord 9.3 km/h
Temperatura: 3°C
Temperatura Vento: 1°C
P.to Rugiada: -1°C
Umidita: 75%
Barometro: 1024 hPa
Visibilita: oltre 10 km
dettagli cloud: Sereno
LIPO 312350Z 01005KT CAVOK 03/M01 Q1024
LIPF - Ferrara
Dati ricevuti: 31-03-2020 19:55
DATI Obsoleti
Sereno  
Sereno  
   Vento: Variabile calma
Vento: Variabile calma
Temperatura: 8°C
P.to Rugiada: -6°C
Umidita: 37%
Barometro: 1021 hPa
Visibilita: oltre 10 km
dettagli cloud: Sereno
LIPF 311755Z /////KT CAVOK 08/M06 Q1021
LIPL - Ghedi
Dati ricevuti: 01-04-2020 01:55
Sereno  
Sereno  
   Vento: NNW 5.6 km/h
Vento: NNW 5.6 km/h
Temperatura: 3°C
Temperatura Vento: 2°C
P.to Rugiada: 1°C
Umidita: 87%
Barometro: 1022 hPa
Visibilita: oltre 10 km
dettagli cloud: Sereno
LIPL 312355Z 34003KT CAVOK 03/01 Q1022 RMK SKC VIS MIN 9999 WIND THR31 33003KT WIND THR13 34003KT BLU
LIVC - Monte Cimone
Dati ricevuti: 01-04-2020 01:55
  
  
   Vento: NE 48.2 km/h<br />Gust to 48.2 km/h
Vento: NE 48.2 km/h
Gust to 48.2 km/h
Temperatura: -10°C
Temperatura Vento: -22°C
P.to Rugiada: -11°C
Umidita: 92%
Barometro: 1011 hPa
LIVC 312355Z AUTO 03026G48KT //// M10/M11 Q1011
LIMS - Piacenza
Dati ricevuti: 31-03-2020 19:55
DATI Obsoleti
Sereno  
Sereno  
   Vento: Oriente 11.1 km/h
Vento: Oriente 11.1 km/h
Temperatura: 7°C
Temperatura Vento: 5°C
P.to Rugiada: -4°C
Umidita: 46%
Barometro: 1020 hPa
Visibilita: oltre 10 km
dettagli cloud: Sereno
LIMS 311755Z 10006KT CAVOK 07/M04 Q1020
LIMT - Passo della Cisa
Dati ricevuti: 23-09-2019 13:55
DATI Obsoleti
Nebbia  
Nebbia  
   Vento: calma
Vento: calma
Temperatura: 10°C
P.to Rugiada: 10°C
Umidita: 100%
Barometro: 1014 hPa
Visibilita: 0 km
dettagli cloud: Coperto
LIMT 231155Z 00000KT 0000 FG VV/// 10/10 Q1014 RMK MON INVIS VAL INVIS VIS MIN 0000
LIPU - Padova
Dati ricevuti: 31-03-2020 08:00
DATI Obsoleti
Parzialmente nuvoloso  
Parzialmente nuvoloso  
   Vento: NE 14.8 km/h
Vento: NE 14.8 km/h
Temperatura: 5°C
Temperatura Vento: 2°C
P.to Rugiada: -3°C
Umidita: 57%
Barometro: 1022 hPa
Nuvole: Parzialmente nuvoloso
Visibilita: oltre 10 km
dettagli cloud: Parzialmente nuvoloso 4500 ft
LIPU 310600Z 04008KT 360V060 9999 SCT045 05/M03 Q1022

Script sviluppato da  Saratoga-weather.org Adattato per il modello da  Weerstation Leuven

Strumentazione usata:

Stazione meteo
Davis VP2

Programma gestore dati meteo
WVIEW

Server per i dati meteo
Pc-WDS5

Davis VP2

WVIEW

Pc-WDS5